Time;durP1;ratioP1;P1;durP2;ratioP2;P2;SDS_P1;SDS_P2;PMS_P1;PMS_P2;Temp;Humidity;BMP_temperature;BMP_pressure;BME280_temperature;BME280_humidity;BME280_pressure;Samples;Min_cycle;Max_cycle;Signal;HPM_P1;HPM_P2
2022/03/28 00:01:29;;;;;;;;;35.50;31.00;;;;;12.43;51.70;102309.16;5031102;28;45591;-68
2022/03/28 00:03:54;;;;;;;;;43.75;34.50;;;;;12.39;51.76;102307.50;5034600;28;45365;-68
2022/03/28 00:06:20;;;;;;;;;42.00;31.25;;;;;12.36;51.88;102305.78;5032964;28;45423;-68
2022/03/28 00:08:45;;;;;;;;;39.00;32.75;;;;;12.34;51.96;102301.47;5031884;28;45269;-68
2022/03/28 00:11:10;;;;;;;;;44.50;34.00;;;;;12.32;52.06;102305.91;5031065;28;45540;-68
2022/03/28 00:13:36;;;;;;;;;41.75;31.50;;;;;12.28;52.53;102303.34;5031163;28;45473;-68
2022/03/28 00:16:03;;;;;;;;;45.50;30.50;;;;;12.26;52.35;102293.75;5033482;28;45418;-68
2022/03/28 00:18:28;;;;;;;;;38.25;32.50;;;;;12.23;52.39;102292.06;5033989;28;46225;-68
2022/03/28 00:20:55;;;;;;;;;38.75;34.25;;;;;12.18;52.77;102287.81;5031609;28;45701;-68
2022/03/28 00:23:21;;;;;;;;;37.75;31.50;;;;;12.15;52.57;102286.09;5030818;28;45432;-68
2022/03/28 00:25:47;;;;;;;;;30.00;26.75;;;;;12.14;53.27;102284.38;5031226;28;45315;-68
2022/03/28 00:28:13;;;;;;;;;33.75;32.00;;;;;12.10;53.26;102290.63;5031622;28;46894;-68
2022/03/28 00:30:39;;;;;;;;;39.25;28.00;;;;;12.07;53.08;102280.16;5035163;28;45831;-68
2022/03/28 00:33:05;;;;;;;;;36.50;32.25;;;;;12.03;53.56;102283.78;5031648;28;45448;-68
2022/03/28 00:35:31;;;;;;;;;37.75;32.00;;;;;12.01;53.75;102283.81;5030962;28;45397;-68
2022/03/28 00:37:57;;;;;;;;;35.25;26.25;;;;;11.97;53.67;102283.94;5030373;28;46179;-68
2022/03/28 00:40:23;;;;;;;;;35.00;26.50;;;;;11.93;54.00;102283.13;5030944;28;45305;-68
2022/03/28 00:42:48;;;;;;;;;40.00;32.75;;;;;11.87;53.96;102271.88;5034851;28;45298;-68
2022/03/28 00:45:14;;;;;;;;;41.75;34.00;;;;;11.83;54.13;102271.06;5031856;28;45374;-68
2022/03/28 00:47:40;;;;;;;;;36.50;30.25;;;;;11.80;54.40;102270.22;5030645;28;46398;-68
2022/03/28 00:50:07;;;;;;;;;35.50;30.75;;;;;11.76;54.17;102277.38;5030874;28;45440;-68
2022/03/28 00:52:33;;;;;;;;;35.75;30.50;;;;;11.71;54.12;102269.56;5030555;28;45839;-68
2022/03/28 00:55:01;;;;;;;;;36.25;25.00;;;;;11.70;54.14;102270.47;5033150;28;45344;-68
2022/03/28 00:57:29;;;;;;;;;39.00;30.00;;;;;11.67;54.52;102269.66;5033323;28;45502;-68
2022/03/28 00:59:54;;;;;;;;;37.75;31.00;;;;;11.63;54.31;102268.88;5032675;28;45825;-68
2022/03/28 01:02:19;;;;;;;;;36.00;30.25;;;;;11.63;54.63;102268.00;5030306;28;45441;-68
2022/03/28 01:04:45;;;;;;;;;37.00;28.50;;;;;11.59;54.96;102269.84;5029749;28;45388;-68
2022/03/28 01:07:12;;;;;;;;;37.75;31.00;;;;;11.55;54.86;102265.56;5030835;28;51260;-68
2022/03/28 01:09:37;;;;;;;;;39.00;31.75;;;;;11.53;55.28;102269.09;5034075;28;45439;-68
2022/03/28 01:12:04;;;;;;;;;35.50;31.00;;;;;11.50;55.21;102267.44;5031095;28;45401;-68
2022/03/28 01:14:30;;;;;;;;;33.00;28.00;;;;;11.47;55.07;102259.59;5030084;28;45661;-68
2022/03/28 01:19:39;;;;;;;;;41.00;34.00;;;;;11.40;55.49;102253.59;5029751;28;45460;-68
2022/03/28 01:22:05;;;;;;;;;42.75;34.25;;;;;11.36;55.23;102251.06;5032399;28;45330;-68
2022/03/28 01:24:31;;;;;;;;;40.00;30.25;;;;;11.32;55.78;102254.66;5032649;28;46103;-68
2022/03/28 01:26:57;;;;;;;;;44.25;30.25;;;;;11.31;55.38;102253.78;5030586;28;46120;-68
2022/03/28 01:29:23;;;;;;;;;37.75;34.25;;;;;11.27;55.70;102256.50;5029943;28;45443;-68
2022/03/28 01:31:48;;;;;;;;;44.25;34.75;;;;;11.24;55.85;102247.81;5030202;28;45285;-68
2022/03/28 01:34:18;;;;;;;;;39.50;30.00;;;;;11.21;56.01;102234.69;5030174;28;45752;-68
2022/03/28 01:36:47;;;;;;;;;43.25;35.75;;;;;11.18;56.06;102245.31;5018545;28;45756;-68
2022/03/28 01:39:17;;;;;;;;;38.25;33.25;;;;;11.16;56.22;102238.31;5035074;28;45168;-68
2022/03/28 01:41:43;;;;;;;;;45.50;32.00;;;;;11.13;56.35;102244.53;5029903;28;45579;-68
2022/03/28 01:44:09;;;;;;;;;41.50;29.50;;;;;11.09;56.35;102240.22;5029832;28;45422;-68
2022/03/28 01:46:45;;;;;;;;;40.50;32.50;;;;;11.04;56.55;102235.97;5029639;28;45392;-68
2022/03/28 01:49:15;;;;;;;;;34.25;33.25;;;;;11.01;56.54;102238.66;5030745;28;45921;-68
2022/03/28 01:51:40;;;;;;;;;41.75;31.25;;;;;10.97;56.65;102229.97;5016274;28;45480;-68
2022/03/28 01:54:06;;;;;;;;;39.25;31.00;;;;;10.94;57.00;102230.03;5034646;28;45720;-68
2022/03/28 01:56:34;;;;;;;;;43.25;27.25;;;;;10.93;56.89;102225.66;5029543;28;45502;-68
2022/03/28 01:58:59;;;;;;;;;34.50;30.75;;;;;10.90;56.99;102228.34;5029169;28;47653;-68
2022/03/28 02:01:24;;;;;;;;;44.50;37.00;;;;;10.89;57.28;102226.63;5030099;28;45427;-68
2022/03/28 02:03:50;;;;;;;;;44.00;36.33;;;;;10.84;57.07;102221.44;5033020;28;50830;-68
2022/03/28 02:06:15;;;;;;;;;46.00;37.33;;;;;10.84;57.55;102233.75;5030291;28;55174;-68
2022/03/28 02:08:41;;;;;;;;;44.75;35.00;;;;;10.82;57.23;102227.66;5033809;28;45528;-68
2022/03/28 02:11:07;;;;;;;;;49.75;36.75;;;;;10.80;57.12;102225.03;5029540;28;45513;-68
2022/03/28 02:13:32;;;;;;;;;46.75;37.25;;;;;10.78;57.67;102224.22;5029505;28;45451;-68
2022/03/28 02:15:58;;;;;;;;;50.67;37.33;;;;;10.77;57.66;102226.88;5032545;28;46667;-68
2022/03/28 02:18:23;;;;;;;;;50.00;38.00;;;;;10.76;57.21;102226.03;5035093;28;45891;-68
2022/03/28 02:20:49;;;;;;;;;43.75;36.50;;;;;10.73;57.84;102222.56;5033063;28;53930;-68
2022/03/28 02:23:14;;;;;;;;;52.75;38.00;;;;;10.69;57.49;102216.50;5033025;28;45408;-68
2022/03/28 02:25:41;;;;;;;;;50.00;36.75;;;;;10.65;57.98;102222.75;5032612;28;46416;-68
2022/03/28 02:28:07;;;;;;;;;50.75;37.00;;;;;10.64;57.69;102215.72;5034367;28;45626;-68
2022/03/28 02:30:32;;;;;;;;;52.50;37.75;;;;;10.63;58.05;102217.50;5035941;28;45429;-68
2022/03/28 02:32:58;;;;;;;;;53.25;40.25;;;;;10.62;58.23;102215.75;5033303;28;45360;-68
2022/03/28 02:35:24;;;;;;;;;53.25;39.50;;;;;10.60;58.38;102219.31;5032874;28;46399;-68
2022/03/28 02:37:50;;;;;;;;;45.25;36.00;;;;;10.56;58.47;102215.03;5032461;28;45517;-67
2022/03/28 02:40:15;;;;;;;;;52.25;39.75;;;;;10.54;58.59;102214.16;5033067;28;45404;-68
2022/03/28 02:42:41;;;;;;;;;47.50;39.25;;;;;10.52;58.45;102208.94;5036799;28;45575;-68
2022/03/28 02:45:07;;;;;;;;;48.25;36.00;;;;;10.51;59.11;102209.84;5033342;28;46098;-68
2022/03/28 02:47:33;;;;;;;;;48.50;35.00;;;;;10.50;59.09;102202.88;5032417;28;45913;-68
2022/03/28 02:49:58;;;;;;;;;51.00;38.00;;;;;10.48;59.17;102199.38;5032316;28;45427;-68
2022/03/28 02:52:23;;;;;;;;;45.50;35.75;;;;;10.47;59.05;102199.41;5032340;28;45393;-68
2022/03/28 02:54:49;;;;;;;;;47.25;38.00;;;;;10.45;59.38;102199.47;5036715;28;46110;-68
2022/03/28 02:57:14;;;;;;;;;49.50;38.50;;;;;10.43;59.31;102198.59;5033414;28;46665;-68
2022/03/28 02:59:40;;;;;;;;;49.25;35.75;;;;;10.42;59.22;102195.09;5032283;28;45407;-68
2022/03/28 03:02:06;;;;;;;;;51.50;37.00;;;;;10.38;59.60;102188.16;5032118;28;45531;-68
2022/03/28 03:04:32;;;;;;;;;48.75;38.50;;;;;10.40;59.83;102188.16;5032398;28;45502;-68
2022/03/28 03:06:58;;;;;;;;;48.00;36.00;;;;;10.39;59.35;102186.44;5035045;28;45287;-68
2022/03/28 03:09:23;;;;;;;;;49.00;37.75;;;;;10.37;59.60;102175.94;5034301;28;45396;-68
2022/03/28 03:11:49;;;;;;;;;51.00;39.00;;;;;10.37;59.81;102173.31;5032520;28;45350;-68
2022/03/28 03:14:14;;;;;;;;;46.33;36.00;;;;;10.36;60.31;102173.34;5031833;28;49981;-68
2022/03/28 03:16:40;;;;;;;;;55.00;40.00;;;;;10.34;60.01;102170.75;5030977;28;55698;-67
2022/03/28 03:19:06;;;;;;;;;21.25;13.50;;;;;10.32;59.84;102180.41;5033343;28;45287;-68
2022/03/28 03:21:32;;;;;;;;;45.00;35.25;;;;;10.31;60.43;102169.94;5035086;28;45321;-68
2022/03/28 03:23:57;;;;;;;;;52.00;40.25;;;;;10.29;60.59;102172.59;5032397;28;45435;-68
2022/03/28 03:26:22;;;;;;;;;50.50;42.25;;;;;10.26;60.53;102164.75;5031725;28;45358;-68
2022/03/28 03:28:48;;;;;;;;;51.00;36.33;;;;;10.24;60.76;102166.56;5031428;28;45448;-68
2022/03/28 03:31:13;;;;;;;;;48.25;38.25;;;;;10.23;60.71;102166.53;5032351;28;45370;-68
2022/03/28 03:33:39;;;;;;;;;44.75;38.25;;;;;10.22;60.88;102165.69;5035652;28;46280;-68
2022/03/28 03:36:06;;;;;;;;;42.25;37.50;;;;;10.21;61.30;102166.56;5032380;28;45406;-68
2022/03/28 03:38:31;;;;;;;;;51.25;38.75;;;;;10.19;61.63;102163.97;5031592;28;45665;-68
2022/03/28 03:40:57;;;;;;;;;56.00;41.25;;;;;10.18;61.47;102159.63;5031594;28;45731;-68
2022/03/28 03:43:24;;;;;;;;;47.75;37.25;;;;;10.17;61.70;102162.25;5031847;28;45781;-68
2022/03/28 03:45:49;;;;;;;;;49.25;39.00;;;;;10.16;61.82;102169.28;5035549;28;45595;-68
2022/03/28 03:48:15;;;;;;;;;52.25;38.75;;;;;10.17;62.00;102171.00;5032931;28;45457;-68
2022/03/28 03:50:41;;;;;;;;;48.00;37.75;;;;;10.16;62.27;102163.16;5031975;28;45334;-68
2022/03/28 03:53:07;;;;;;;;;53.00;39.50;;;;;10.14;62.11;102163.19;5031302;28;47121;-68
2022/03/28 03:55:32;;;;;;;;;55.75;42.50;;;;;10.14;62.00;102163.19;5031542;28;45301;-68
2022/03/28 03:57:57;;;;;;;;;41.50;37.75;;;;;10.14;62.20;102164.97;5034330;28;45602;-68
2022/03/28 04:00:23;;;;;;;;;60.00;43.00;;;;;10.12;62.20;102159.72;5033072;28;48976;-68
2022/03/28 04:02:50;;;;;;;;;59.50;41.50;;;;;10.10;62.39;102156.25;5031575;28;46092;-68
2022/03/28 04:05:15;;;;;;;;;52.75;40.50;;;;;10.09;62.27;102161.56;5031090;28;45980;-68
2022/03/28 04:07:41;;;;;;;;;54.50;38.75;;;;;10.05;62.82;102158.13;5031177;28;45433;-68
2022/03/28 04:10:07;;;;;;;;;58.50;42.25;;;;;10.05;62.39;102168.63;5033281;28;45405;-68
2022/03/28 04:12:32;;;;;;;;;47.00;38.75;;;;;10.04;62.79;102161.63;5034106;28;46371;-68
2022/03/28 04:14:59;;;;;;;;;49.00;39.00;;;;;10.02;62.68;102163.41;5031623;28;45586;-68
2022/03/28 04:17:29;;;;;;;;;49.00;37.75;;;;;9.99;62.82;102167.88;5031195;28;45371;-68
2022/03/28 04:19:58;;;;;;;;;45.50;35.75;;;;;10.00;62.99;102166.97;5030962;28;45558;-68
2022/03/28 04:22:24;;;;;;;;;51.75;37.50;;;;;9.99;63.00;102167.88;5030911;28;47184;-68
2022/03/28 04:24:50;;;;;;;;;47.00;38.00;;;;;9.98;63.10;102169.63;5034907;28;45527;-68
2022/03/28 04:27:15;;;;;;;;;46.25;36.50;;;;;9.96;62.87;102170.53;5032215;28;45389;-68
2022/03/28 04:29:40;;;;;;;;;46.75;35.50;;;;;9.93;62.79;102167.09;5031072;28;45503;-68
2022/03/28 04:32:06;;;;;;;;;51.50;39.75;;;;;9.92;63.10;102169.75;5030899;28;46799;-68
2022/03/28 04:34:31;;;;;;;;;55.75;39.75;;;;;9.89;63.18;102170.66;5030666;28;45456;-68
2022/03/28 04:36:56;;;;;;;;;50.67;37.67;;;;;9.89;63.13;102169.78;5033788;28;45571;-68
2022/03/28 04:39:22;;;;;;;;;48.00;36.33;;;;;9.85;63.42;102161.06;5032046;28;58418;-68
2022/03/28 04:41:47;;;;;;;;;53.00;38.67;;;;;9.84;63.28;102166.38;5031005;28;50039;-68
2022/03/28 04:44:12;;;;;;;;;55.67;37.67;;;;;9.82;63.68;102169.03;5030567;28;45394;-68
2022/03/28 04:46:38;;;;;;;;;55.00;38.33;;;;;9.82;63.81;102168.16;5030471;28;46978;-68
2022/03/28 04:49:03;;;;;;;;;49.25;38.25;;;;;9.80;63.94;102164.69;5033089;28;45472;-68
2022/03/28 04:51:28;;;;;;;;;58.00;41.50;;;;;9.79;64.26;102162.94;5032872;28;52629;-68
2022/03/28 04:53:54;;;;;;;;;42.75;37.25;;;;;9.78;64.25;102166.47;5031038;28;45397;-68
2022/03/28 04:56:19;;;;;;;;;48.50;38.25;;;;;9.76;64.78;102156.00;5030392;28;45748;-68
2022/03/28 04:58:44;;;;;;;;;52.67;40.00;;;;;9.75;64.92;102162.13;5030037;28;45545;-68
2022/03/28 05:01:10;;;;;;;;;55.00;39.50;;;;;9.73;64.67;102156.03;5031494;28;46117;-68
2022/03/28 05:03:35;;;;;;;;;53.75;37.75;;;;;9.73;64.58;102156.03;5033760;28;45337;-69
2022/03/28 05:06:02;;;;;;;;;55.25;41.75;;;;;9.72;64.99;102153.47;5013249;28;45453;-66
2022/03/28 05:08:27;;;;;;;;;52.75;38.00;;;;;9.71;64.95;102159.56;5030670;28;45440;-67
2022/03/28 05:10:52;;;;;;;;;40.25;34.50;;;;;9.70;65.20;102157.84;5030128;28;46044;-67
2022/03/28 05:13:19;;;;;;;;;46.33;38.33;;;;;9.70;65.12;102155.22;5029677;28;51467;-68
2022/03/28 05:15:44;;;;;;;;;53.75;39.25;;;;;9.67;65.45;102151.78;5034762;28;45649;-68
2022/03/28 05:18:09;;;;;;;;;45.50;39.00;;;;;9.67;65.53;102146.53;5030277;28;51548;-68
2022/03/28 05:20:35;;;;;;;;;50.00;36.75;;;;;9.67;65.50;102151.78;5030228;28;46650;-68
2022/03/28 05:23:00;;;;;;;;;59.25;41.75;;;;;9.65;65.28;102145.66;5029842;28;45595;-68
2022/03/28 05:25:25;;;;;;;;;50.50;38.00;;;;;9.65;65.36;102150.03;5030057;28;45330;-68
2022/03/28 05:27:52;;;;;;;;;47.33;35.67;;;;;9.64;65.46;102140.44;5033488;28;50159;-68
2022/03/28 05:30:20;;;;;;;;;44.25;36.75;;;;;9.63;65.58;102147.47;5031178;28;47146;-68
2022/03/28 05:32:45;;;;;;;;;49.25;38.00;;;;;9.64;65.40;102141.31;5030262;28;45925;-68
2022/03/28 05:35:10;;;;;;;;;49.67;36.00;;;;;9.65;65.42;102139.53;5029941;28;50752;-68
2022/03/28 05:37:36;;;;;;;;;52.00;39.33;;;;;9.66;65.83;102144.78;5029969;28;45788;-68
2022/03/28 05:40:03;;;;;;;;;56.00;40.00;;;;;9.67;65.75;102149.16;5032231;28;46370;-68
2022/03/28 05:42:29;;;;;;;;;51.25;36.25;;;;;9.70;65.59;102140.34;5032591;28;45449;-68
2022/03/28 05:44:54;;;;;;;;;53.00;37.00;;;;;9.73;65.80;102144.69;5030242;28;45454;-68
2022/03/28 05:47:19;;;;;;;;;41.50;36.00;;;;;9.76;65.50;102149.88;5030108;28;45403;-68
2022/03/28 05:49:44;;;;;;;;;53.00;38.75;;;;;9.79;65.79;102150.69;5029601;28;45911;-68
2022/03/28 05:52:10;;;;;;;;;48.67;40.00;;;;;9.82;65.47;102152.41;5029795;28;45393;-68
2022/03/28 05:54:35;;;;;;;;;49.50;38.00;;;;;9.84;66.04;102154.09;5033656;28;45314;-68
2022/03/28 05:57:01;;;;;;;;;54.75;41.25;;;;;9.90;66.09;102148.75;5030416;28;45369;-68
2022/03/28 05:59:27;;;;;;;;;51.00;38.25;;;;;9.99;66.17;102149.47;5029379;28;45523;-68
2022/03/28 06:01:52;;;;;;;;;41.75;36.00;;;;;10.06;65.73;102144.06;5029720;28;45478;-68
2022/03/28 06:04:18;;;;;;;;;48.00;35.75;;;;;10.14;66.28;102143.94;5029616;28;45416;-68
2022/03/28 06:06:43;;;;;;;;;53.50;39.75;;;;;10.20;65.94;102139.44;5034241;28;45256;-68
2022/03/28 06:09:09;;;;;;;;;52.00;37.00;;;;;10.29;65.80;102137.56;5030372;28;45458;-68
2022/03/28 06:11:34;;;;;;;;;50.75;39.75;;;;;10.37;65.31;102140.91;5029351;28;46829;-68
2022/03/28 06:14:01;;;;;;;;;50.25;38.25;;;;;10.45;65.49;102142.50;5029338;28;45547;-68
2022/03/28 06:16:26;;;;;;;;;51.00;37.50;;;;;10.54;65.46;102148.44;5029470;28;45365;-67
2022/03/28 06:18:52;;;;;;;;;50.00;33.00;;;;;10.61;64.95;102148.31;5032602;28;46866;-67
2022/03/28 06:21:18;;;;;;;;;56.25;39.00;;;;;10.72;65.06;102142.81;5030797;28;45330;-67
2022/03/28 06:23:44;;;;;;;;;50.50;39.00;;;;;10.80;64.65;102146.13;5029808;28;45471;-67
2022/03/28 06:26:12;;;;;;;;;50.25;37.75;;;;;10.86;64.34;102142.53;5029663;28;45464;-67
2022/03/28 06:28:40;;;;;;;;;51.25;38.75;;;;;10.94;64.38;102148.47;5029209;28;47073;-67
2022/03/28 06:31:08;;;;;;;;;41.25;33.75;;;;;11.01;64.10;102142.19;5030764;28;45357;-67
2022/03/28 06:33:35;;;;;;;;;52.25;38.25;;;;;11.09;64.37;102139.41;5032848;28;45729;-67
2022/03/28 06:36:00;;;;;;;;;49.50;38.25;;;;;11.19;63.64;102135.66;5030196;28;45532;-67
2022/03/28 06:38:25;;;;;;;;;45.00;36.00;;;;;11.30;63.88;102136.25;5028717;28;46103;-67
2022/03/28 06:40:51;;;;;;;;;45.25;37.00;;;;;11.43;63.18;102137.72;5029049;28;45389;-67
2022/03/28 06:43:16;;;;;;;;;44.50;32.75;;;;;11.54;63.20;102134.81;5029601;28;45409;-67
2022/03/28 06:45:42;;;;;;;;;47.75;39.50;;;;;11.64;63.19;102132.78;5017511;28;45334;-68
2022/03/28 06:48:08;;;;;;;;;44.25;35.25;;;;;11.72;62.71;102128.22;5029942;28;46064;-67
2022/03/28 06:50:34;;;;;;;;;52.25;37.75;;;;;11.77;62.61;102127.19;5028735;28;45522;-67
2022/03/28 06:53:00;;;;;;;;;53.75;39.75;;;;;11.84;62.33;102124.44;5028915;28;45310;-67
2022/03/28 06:55:26;;;;;;;;;46.25;38.50;;;;;11.86;62.12;102123.50;5028884;28;45449;-67
2022/03/28 06:57:52;;;;;;;;;53.50;37.50;;;;;11.90;62.11;102130.41;5032609;28;46016;-68
2022/03/28 07:00:17;;;;;;;;;54.00;40.25;;;;;11.97;62.07;102129.34;5029933;28;45342;-67
2022/03/28 07:02:43;;;;;;;;;48.00;36.50;;;;;12.08;62.50;102129.06;5029196;28;45440;-67
2022/03/28 07:05:09;;;;;;;;;57.50;43.25;;;;;12.20;61.80;102127.84;5032215;28;45813;-67
2022/03/28 07:07:39;;;;;;;;;56.75;40.50;;;;;12.30;61.84;102131.97;5032389;28;45694;-67
2022/03/28 07:10:05;;;;;;;;;57.50;38.50;;;;;12.40;62.03;102130.78;5033602;28;45992;-67
2022/03/28 07:12:31;;;;;;;;;54.25;43.00;;;;;12.56;61.67;102127.72;5034918;28;45385;-68
2022/03/28 07:14:56;;;;;;;;;59.50;44.25;;;;;12.72;61.51;102121.09;5032738;28;46974;-68
2022/03/28 07:17:22;;;;;;;;;54.25;42.75;;;;;12.89;61.94;102112.66;5032268;28;47004;-67
2022/03/28 07:19:47;;;;;;;;;60.00;44.00;;;;;13.04;60.87;102114.81;5031863;28;45483;-67
2022/03/28 07:22:12;;;;;;;;;64.00;45.00;;;;;13.17;60.88;102108.25;5032269;28;50720;-67
2022/03/28 07:24:38;;;;;;;;;64.00;48.00;;;;;13.32;60.66;102107.81;5036010;28;45464;-67
2022/03/28 07:27:03;;;;;;;;;58.00;45.00;;;;;13.47;60.43;102108.22;5032248;28;47226;-67
2022/03/28 07:29:28;;;;;;;;;58.75;45.75;;;;;13.62;60.44;102106.81;5031783;28;45422;-67
2022/03/28 07:31:56;;;;;;;;;61.50;44.75;;;;;13.73;60.22;102105.56;5031727;28;45392;-67
2022/03/28 07:34:30;;;;;;;;;63.25;45.75;;;;;13.85;60.11;102096.34;5032164;28;45501;-67
2022/03/28 07:37:02;;;;;;;;;61.50;45.75;;;;;14.02;59.92;102103.69;5034622;28;46206;-67
2022/03/28 07:39:28;;;;;;;;;60.00;45.50;;;;;14.16;59.74;102101.41;5034370;28;46125;-68
2022/03/28 07:41:54;;;;;;;;;60.50;45.50;;;;;14.30;59.25;102099.13;5034527;28;45471;-68
2022/03/28 07:44:20;;;;;;;;;58.25;44.25;;;;;14.45;59.26;102096.81;5031733;28;45511;-68
2022/03/28 07:46:46;;;;;;;;;59.00;42.50;;;;;14.58;58.75;102096.34;5031555;28;46080;-68
2022/03/28 07:49:12;;;;;;;;;49.75;40.25;;;;;14.75;59.17;102100.13;5032630;28;45554;-67
2022/03/28 07:51:38;;;;;;;;;58.25;46.00;;;;;14.93;59.24;102104.72;5035377;28;45313;-68
2022/03/28 07:54:04;;;;;;;;;61.00;46.25;;;;;15.09;58.76;102099.66;5032153;28;45298;-67
2022/03/28 07:56:31;;;;;;;;;52.25;38.75;;;;;15.29;57.94;102098.84;5031315;28;46375;-68
2022/03/28 07:58:57;;;;;;;;;57.25;41.75;;;;;15.48;57.83;102096.31;5031111;28;45968;-68
2022/03/28 08:01:22;;;;;;;;;60.00;44.50;;;;;15.64;57.86;102092.97;5031418;28;45492;-67
2022/03/28 08:03:48;;;;;;;;;61.00;46.00;;;;;15.79;57.04;102091.47;5035641;28;47087;-68
2022/03/28 08:06:14;;;;;;;;;61.25;43.00;;;;;15.98;56.99;102093.31;5032403;28;45341;-68
2022/03/28 08:08:39;;;;;;;;;62.25;44.50;;;;;16.13;56.54;102093.50;5031305;28;45417;-68
2022/03/28 08:11:07;;;;;;;;;58.25;41.75;;;;;16.29;56.12;102093.69;5031110;28;45406;-68
2022/03/28 08:13:34;;;;;;;;;49.75;39.50;;;;;16.47;55.93;102088.44;5031072;28;45400;-68
2022/03/28 08:15:59;;;;;;;;;57.75;45.00;;;;;16.59;55.91;102091.38;5033281;28;45496;-68
2022/03/28 08:18:26;;;;;;;;;57.25;44.25;;;;;16.72;55.30;102091.72;5033430;28;45889;-67
2022/03/28 08:20:52;;;;;;;;;54.25;42.75;;;;;16.88;54.83;102090.06;5031656;28;45428;-68
2022/03/28 08:23:20;;;;;;;;;62.00;44.00;;;;;17.07;54.95;102087.38;5031112;28;45675;-68
2022/03/28 08:25:46;;;;;;;;;58.50;44.75;;;;;17.29;54.46;102094.31;5031096;28;45984;-68
2022/03/28 08:28:11;;;;;;;;;60.00;43.75;;;;;17.53;53.93;102098.38;5031931;28;45500;-68
2022/03/28 08:30:37;;;;;;;;;55.25;42.00;;;;;17.79;53.31;102094.41;5034596;28;49608;-68
2022/03/28 08:33:02;;;;;;;;;58.25;42.25;;;;;17.95;53.11;102084.69;5031551;28;45410;-68
2022/03/28 08:35:27;;;;;;;;;56.50;41.75;;;;;18.16;52.90;102089.81;5031099;28;46210;-68
2022/03/28 08:37:53;;;;;;;;;54.50;41.25;;;;;18.43;52.35;102088.38;5030681;28;45508;-67
2022/03/28 08:40:19;;;;;;;;;54.25;42.00;;;;;18.75;52.28;102083.09;5030811;28;45547;-68
2022/03/28 08:42:44;;;;;;;;;52.75;41.00;;;;;19.00;51.34;102070.13;5035721;28;45587;-68
2022/03/28 08:45:13;;;;;;;;;59.00;43.50;;;;;19.36;50.49;102062.72;5035728;28;48094;-68
2022/03/28 08:47:42;;;;;;;;;54.00;42.50;;;;;19.74;50.18;102063.16;5030710;28;45957;-68
2022/03/28 08:50:08;;;;;;;;;54.00;43.25;;;;;20.21;49.36;102067.38;5030579;28;45483;-68
2022/03/28 08:52:33;;;;;;;;;52.25;42.00;;;;;20.93;49.05;102062.78;5030519;28;45537;-68
2022/03/28 08:54:59;;;;;;;;;51.75;42.00;;;;;22.30;48.02;102063.28;5033158;28;49799;-68
2022/03/28 08:57:24;;;;;;;;;49.75;39.25;;;;;24.69;47.97;102060.19;5033135;28;45382;-68
2022/03/28 08:59:50;;;;;;;;;47.50;39.25;;;;;27.08;43.52;102055.63;5030795;28;45393;-68
2022/03/28 09:02:37;;;;;;;;;52.33;39.33;;;;;29.40;40.56;102052.97;5030392;28;45278;-68
2022/03/28 09:05:02;;;;;;;;;48.00;37.75;;;;;31.20;38.28;102052.75;5030202;28;46158;-68
2022/03/28 09:07:28;;;;;;;;;52.25;37.75;;;;;32.77;34.95;102042.13;5030168;28;45397;-68
2022/03/28 09:10:05;;;;;;;;;50.00;40.25;;;;;34.23;35.49;102050.00;5033758;28;45516;-68
2022/03/28 09:12:31;;;;;;;;;54.75;41.25;;;;;35.23;31.17;102051.97;5033849;28;45263;-68
2022/03/28 09:14:58;;;;;;;;;46.50;37.00;;;;;36.17;30.73;102051.63;5030895;28;46312;-68
2022/03/28 09:17:25;;;;;;;;;50.00;37.75;;;;;36.93;28.85;102059.72;5030320;28;45807;-68
2022/03/28 09:19:54;;;;;;;;;51.00;37.75;;;;;37.63;27.76;102049.19;5030031;28;45345;-69
2022/03/28 09:22:27;;;;;;;;;47.00;35.75;;;;;37.90;28.33;102055.47;5030601;28;45486;-68
2022/03/28 09:24:57;;;;;;;;;51.00;40.25;;;;;38.26;26.14;102061.25;5033525;28;47293;-68
2022/03/28 09:27:28;;;;;;;;;49.25;36.00;;;;;38.55;25.26;102059.06;5031376;28;45306;-68
2022/03/28 09:30:03;;;;;;;;;50.00;38.00;;;;;39.10;24.83;102054.69;5033041;28;45420;-68
2022/03/28 09:32:32;;;;;;;;;50.25;37.00;;;;;39.87;24.05;102057.19;5030278;28;45516;-68
2022/03/28 09:35:03;;;;;;;;;48.50;35.00;;;;;40.46;23.35;102049.25;5029733;28;45292;-69
2022/03/28 09:37:29;;;;;;;;;47.25;37.75;;;;;40.67;22.23;102046.03;5029994;28;45925;-68
2022/03/28 09:39:55;;;;;;;;;45.50;37.00;;;;;41.15;22.53;102045.09;5033051;28;45739;-68
2022/03/28 09:42:20;;;;;;;;;47.00;36.00;;;;;41.56;21.87;102051.56;5032126;28;45484;-68
2022/03/28 09:44:51;;;;;;;;;47.50;36.00;;;;;41.88;21.00;102043.78;5034014;28;45231;-68
2022/03/28 09:47:22;;;;;;;;;43.75;33.00;;;;;41.97;20.92;102045.94;5027090;28;45829;-67
2022/03/28 09:49:49;;;;;;;;;42.50;32.50;;;;;41.44;19.75;102043.31;5026844;28;45410;-69
2022/03/28 09:52:17;;;;;;;;;43.75;34.25;;;;;40.78;21.16;102036.13;5030193;28;45401;-69
2022/03/28 09:54:52;;;;;;;;;46.25;35.00;;;;;39.72;21.55;102034.69;5018315;28;46217;-69
2022/03/28 09:57:23;;;;;;;;;43.75;33.75;;;;;39.12;21.14;102033.31;5031214;28;45401;-69
2022/03/28 09:59:50;;;;;;;;;42.00;34.75;;;;;38.60;21.55;102037.25;5033960;28;45499;-69
2022/03/28 10:02:21;;;;;;;;;44.25;32.50;;;;;38.21;21.87;102030.03;5029635;28;45599;-69
2022/03/28 10:04:49;;;;;;;;;45.00;34.25;;;;;37.79;21.82;102026.78;5029614;28;46224;-69
2022/03/28 10:07:15;;;;;;;;;43.00;34.00;;;;;37.55;22.12;102023.69;5030077;28;45949;-69
2022/03/28 10:09:41;;;;;;;;;33.25;29.50;;;;;37.18;22.56;102019.69;5033946;28;45475;-69
2022/03/28 10:12:08;;;;;;;;;39.00;31.00;;;;;36.68;21.88;102012.84;5030197;28;45570;-69
2022/03/28 10:14:34;;;;;;;;;36.50;32.25;;;;;36.39;21.91;102016.75;5029701;28;46075;-69
2022/03/28 10:17:04;;;;;;;;;38.00;31.75;;;;;36.32;22.23;102014.00;5029249;28;45482;-69
2022/03/28 10:19:37;;;;;;;;;29.25;27.25;;;;;36.35;21.68;102010.84;5029546;28;45611;-69
2022/03/28 10:22:15;;;;;;;;;34.50;29.25;;;;;36.28;21.77;102002.63;5031566;28;45467;-69
2022/03/28 10:24:43;;;;;;;;;44.00;31.25;;;;;36.13;21.68;102003.81;5033549;28;46055;-69
2022/03/28 10:27:10;;;;;;;;;33.00;26.75;;;;;35.68;21.75;102001.47;5030227;28;45727;-69
2022/03/28 10:29:41;;;;;;;;;32.50;28.50;;;;;35.42;21.54;101999.38;5029498;28;45480;-67
2022/03/28 10:32:17;;;;;;;;;31.00;27.75;;;;;35.08;21.43;101996.56;5029269;28;45318;-69
2022/03/28 10:34:52;;;;;;;;;33.75;27.00;;;;;34.75;21.97;101992.47;5029211;28;45420;-69
2022/03/28 10:37:37;;;;;;;;;38.75;29.50;;;;;34.63;22.38;101980.38;5030107;28;45698;-69
2022/03/28 10:40:28;;;;;;;;;32.25;25.25;;;;;34.48;22.86;101974.97;5035172;28;45461;-69
2022/03/28 10:43:02;;;;;;;;;29.25;22.25;;;;;33.94;22.17;101969.91;5021959;28;45414;-68
2022/03/28 10:45:33;;;;;;;;;35.25;25.00;;;;;33.35;22.30;101966.25;5035036;28;46408;-69
2022/03/28 10:47:59;;;;;;;;;21.00;19.75;;;;;32.81;21.68;101960.97;5035374;28;45345;-69
2022/03/28 10:50:35;;;;;;;;;35.25;26.50;;;;;32.41;22.82;101957.50;5032904;28;45402;-68
2022/03/28 10:53:18;;;;;;;;;31.25;25.75;;;;;32.09;23.01;101950.34;5032163;28;45461;-68
2022/03/28 10:55:51;;;;;;;;;27.00;24.25;;;;;31.98;23.03;101950.75;5032618;28;46251;-68
2022/03/28 10:58:31;;;;;;;;;27.00;24.25;;;;;31.62;23.10;101948.47;5032578;28;45555;-68
2022/03/28 11:01:06;;;;;;;;;23.50;20.50;;;;;31.34;23.39;101948.03;5021367;28;45364;-68
2022/03/28 11:03:37;;;;;;;;;19.25;16.50;;;;;31.02;22.86;101946.19;5035458;28;45416;-68
2022/03/28 11:06:03;;;;;;;;;17.00;15.50;;;;;30.86;22.39;101944.34;5032870;28;46256;-68
2022/03/28 11:08:37;;;;;;;;;20.25;20.25;;;;;30.72;23.38;101937.69;5032249;28;45402;-68
2022/03/28 11:11:20;;;;;;;;;24.50;21.25;;;;;30.61;23.31;101929.88;5032294;28;45461;-68